Time;durP1;ratioP1;P1;durP2;ratioP2;P2;SDS_P1;SDS_P2;PMS_P1;PMS_P2;Temp;Humidity;BMP_temperature;BMP_pressure;BME280_temperature;BME280_humidity;BME280_pressure;Samples;Min_cycle;Max_cycle;Signal;HPM_P1;HPM_P2
2023/05/07 00:00:26;;;;;;;22.93;14.50;;;12.90;75.90;;;;;;4825400;29;20130;-87
2023/05/07 00:02:53;;;;;;;22.10;13.75;;;13.00;75.60;;;;;;4810091;29;20046;-86
2023/05/07 00:05:21;;;;;;;22.10;13.77;;;13.00;75.60;;;;;;4810219;29;20084;-86
2023/05/07 00:07:48;;;;;;;19.77;11.85;;;13.00;75.30;;;;;;4810211;29;20057;-87
2023/05/07 00:10:15;;;;;;;21.63;12.00;;;13.00;74.90;;;;;;4794263;29;20055;-86
2023/05/07 00:12:42;;;;;;;20.47;12.40;;;13.00;75.20;;;;;;4788895;29;20051;-86
2023/05/07 00:15:10;;;;;;;20.42;12.25;;;12.90;75.50;;;;;;4774016;30;20537;-86
2023/05/07 00:17:38;;;;;;;19.05;11.27;;;12.80;75.30;;;;;;4774102;30;20048;-86
2023/05/07 00:20:05;;;;;;;17.80;11.13;;;12.90;75.10;;;;;;4770973;30;20052;-87
2023/05/07 00:22:32;;;;;;;19.40;9.52;;;12.90;75.60;;;;;;4788984;29;20518;-86
2023/05/07 00:25:00;;;;;;;15.97;9.37;;;12.90;74.70;;;;;;4773851;30;20559;-86
2023/05/07 00:27:27;;;;;;;15.95;9.18;;;12.80;74.10;;;;;;4770611;30;20099;-86
2023/05/07 00:29:54;;;;;;;16.15;8.77;;;12.80;74.30;;;;;;4797962;29;20142;-86
2023/05/07 00:32:21;;;;;;;17.02;9.73;;;12.90;73.90;;;;;;4788407;29;20055;-86
2023/05/07 00:34:48;;;;;;;15.05;8.70;;;12.90;73.90;;;;;;4788467;29;20051;-86
2023/05/07 00:37:15;;;;;;;13.67;8.40;;;13.00;73.50;;;;;;4773749;30;20052;-86
2023/05/07 00:39:42;;;;;;;14.88;8.25;;;13.00;73.40;;;;;;4770587;30;20560;-86
2023/05/07 00:42:09;;;;;;;15.38;8.57;;;12.90;73.20;;;;;;4785468;29;20447;-85
2023/05/07 00:44:36;;;;;;;13.82;8.45;;;12.80;73.50;;;;;;4785118;29;20469;-86
2023/05/07 00:47:05;;;;;;;15.63;9.43;;;12.80;73.60;;;;;;4799356;29;20061;-86
2023/05/07 00:49:43;;;;;;;14.63;8.17;;;12.80;73.40;;;;;;4770309;30;20454;-85
2023/05/07 00:52:13;;;;;;;16.98;9.07;;;12.80;73.40;;;;;;4785091;29;20055;-86
2023/05/07 00:54:41;;;;;;;15.27;8.70;;;12.90;73.20;;;;;;4770251;30;20056;-86
2023/05/07 00:57:11;;;;;;;15.18;8.60;;;12.80;73.30;;;;;;4785034;29;20048;-86
2023/05/07 00:59:39;;;;;;;15.85;9.50;;;12.80;73.10;;;;;;4784767;29;20519;-86
2023/05/07 01:02:07;;;;;;;15.57;9.23;;;12.70;73.50;;;;;;4788021;30;20047;-85
2023/05/07 01:04:35;;;;;;;14.20;8.32;;;12.70;73.50;;;;;;4773001;30;20112;-85
2023/05/07 01:07:03;;;;;;;15.23;9.20;;;12.70;73.40;;;;;;4787953;29;20055;-85
2023/05/07 01:09:30;;;;;;;15.75;8.80;;;12.60;73.20;;;;;;4769841;30;20055;-86
2023/05/07 01:11:59;;;;;;;15.73;8.90;;;12.60;73.20;;;;;;4784450;29;20056;-85
2023/05/07 01:14:27;;;;;;;13.93;8.47;;;12.50;73.80;;;;;;4788687;29;20075;-86
2023/05/07 01:16:54;;;;;;;16.80;9.98;;;12.50;74.00;;;;;;4772853;30;20096;-86
2023/05/07 01:19:23;;;;;;;15.68;9.90;;;12.50;73.80;;;;;;4787735;29;20432;-85
2023/05/07 01:21:53;;;;;;;15.95;9.70;;;12.40;74.10;;;;;;4773039;30;20559;-86
2023/05/07 01:24:23;;;;;;;14.80;8.75;;;12.40;74.10;;;;;;4772996;30;20061;-86
2023/05/07 01:26:50;;;;;;;17.43;9.07;;;12.30;74.40;;;;;;4772589;30;20055;-86
2023/05/07 01:29:17;;;;;;;17.27;10.02;;;12.30;74.80;;;;;;4769935;30;20489;-86
2023/05/07 01:31:47;;;;;;;18.75;11.13;;;12.30;74.70;;;;;;4772851;30;20055;-86
2023/05/07 01:34:16;;;;;;;18.83;10.80;;;12.40;74.60;;;;;;4787707;29;20529;-86
2023/05/07 01:36:47;;;;;;;17.08;10.45;;;12.30;75.10;;;;;;4787611;30;20134;-86
2023/05/07 01:39:15;;;;;;;15.33;9.90;;;12.30;75.20;;;;;;4787038;30;20521;-86
2023/05/07 01:41:43;;;;;;;15.52;10.10;;;12.30;74.70;;;;;;4787244;29;20058;-86
2023/05/07 01:44:13;;;;;;;16.50;10.57;;;12.20;75.00;;;;;;4802376;29;20079;-86
2023/05/07 01:46:40;;;;;;;16.58;9.73;;;12.30;75.10;;;;;;4772482;30;20438;-86
2023/05/07 01:49:07;;;;;;;17.65;10.32;;;12.30;74.90;;;;;;4772658;30;20062;-86
2023/05/07 01:51:36;;;;;;;17.37;11.03;;;12.30;74.90;;;;;;4772432;30;20052;-86
2023/05/07 01:54:03;;;;;;;16.85;10.52;;;12.20;75.10;;;;;;4787372;29;20388;-86
2023/05/07 01:56:30;;;;;;;15.68;9.88;;;12.20;75.20;;;;;;4772631;30;20075;-85
2023/05/07 01:58:58;;;;;;;16.98;9.98;;;12.10;75.60;;;;;;4787306;29;20051;-85
2023/05/07 02:01:25;;;;;;;16.52;9.55;;;12.10;75.60;;;;;;4787428;29;20059;-85
2023/05/07 02:03:53;;;;;;;16.80;10.17;;;12.10;75.50;;;;;;4772249;30;20056;-85
2023/05/07 02:06:24;;;;;;;16.77;9.93;;;12.00;75.60;;;;;;4772918;30;20388;-85
2023/05/07 02:08:55;;;;;;;14.30;9.13;;;12.00;75.80;;;;;;4802127;29;20043;-85
2023/05/07 02:11:22;;;;;;;15.95;8.90;;;12.00;75.30;;;;;;4795802;29;20053;-85
2023/05/07 02:13:50;;;;;;;16.73;9.45;;;12.00;75.40;;;;;;4805518;29;20055;-85
2023/05/07 02:16:17;;;;;;;15.70;9.40;;;12.10;75.20;;;;;;4820823;29;20510;-85
2023/05/07 02:18:44;;;;;;;13.32;8.38;;;12.10;74.90;;;;;;4805193;29;20082;-85
2023/05/07 02:21:11;;;;;;;14.48;9.55;;;12.10;74.60;;;;;;4818998;29;20571;-85
2023/05/07 02:23:38;;;;;;;16.23;8.70;;;12.20;75.20;;;;;;4820581;29;20046;-85
2023/05/07 02:26:05;;;;;;;16.15;9.50;;;12.10;74.80;;;;;;4804941;29;20058;-85
2023/05/07 02:28:35;;;;;;;16.20;9.13;;;12.00;74.90;;;;;;4819972;29;20077;-84
2023/05/07 02:31:04;;;;;;;16.73;9.68;;;12.00;74.90;;;;;;4819829;29;20046;-84
2023/05/07 02:33:32;;;;;;;15.82;9.43;;;12.00;75.10;;;;;;4818883;29;20043;-84
2023/05/07 02:36:09;;;;;;;15.30;9.05;;;12.10;75.00;;;;;;4805023;29;20047;-85
2023/05/07 02:38:51;;;;;;;16.23;10.60;;;12.10;75.00;;;;;;4820306;29;20051;-85
2023/05/07 02:41:18;;;;;;;17.17;9.87;;;12.10;74.90;;;;;;4805080;29;20115;-85
2023/05/07 02:43:45;;;;;;;15.93;9.13;;;12.20;74.90;;;;;;4819875;29;20051;-84
2023/05/07 02:46:12;;;;;;;16.58;10.18;;;12.20;74.60;;;;;;4805056;29;20486;-85
2023/05/07 02:48:44;;;;;;;17.00;9.75;;;12.20;74.50;;;;;;4804552;29;20411;-85
2023/05/07 02:51:11;;;;;;;16.98;9.57;;;12.30;74.60;;;;;;4805663;29;20513;-85
2023/05/07 02:53:41;;;;;;;17.70;10.17;;;12.40;74.60;;;;;;4808580;29;20050;-85
2023/05/07 02:56:08;;;;;;;16.85;10.55;;;12.30;74.70;;;;;;4808970;29;20050;-85
2023/05/07 02:58:35;;;;;;;16.00;9.50;;;12.30;74.80;;;;;;4822843;29;20039;-84
2023/05/07 03:01:04;;;;;;;15.10;9.55;;;12.40;74.80;;;;;;4823105;29;20066;-85
2023/05/07 03:03:38;;;;;;;15.77;9.02;;;12.30;74.80;;;;;;4808303;29;20139;-85
2023/05/07 03:06:06;;;;;;;17.80;10.43;;;12.40;74.50;;;;;;4822958;29;20134;-85
2023/05/07 03:08:33;;;;;;;13.75;9.20;;;12.30;74.30;;;;;;4823009;29;20137;-85
2023/05/07 03:11:00;;;;;;;17.08;9.90;;;12.30;74.00;;;;;;4807670;29;20055;-85
2023/05/07 03:13:27;;;;;;;16.23;9.88;;;12.10;74.50;;;;;;4793449;29;20070;-86
2023/05/07 03:15:55;;;;;;;15.43;9.38;;;12.10;74.70;;;;;;4793026;29;20051;-85
2023/05/07 03:18:22;;;;;;;15.97;9.10;;;12.00;74.90;;;;;;4792955;29;20054;-85
2023/05/07 03:20:49;;;;;;;15.23;8.98;;;11.90;75.00;;;;;;4807822;29;20050;-85
2023/05/07 03:23:17;;;;;;;16.30;10.15;;;11.80;75.20;;;;;;4808191;29;20062;-85
2023/05/07 03:25:44;;;;;;;17.17;9.73;;;11.60;75.90;;;;;;4822787;29;20086;-85
2023/05/07 03:28:11;;;;;;;16.95;9.85;;;11.70;75.60;;;;;;4822282;29;20061;-84
2023/05/07 03:30:45;;;;;;;15.63;9.93;;;11.70;75.50;;;;;;4793255;29;20108;-84
2023/05/07 03:33:11;;;;;;;17.42;10.07;;;11.70;75.40;;;;;;4792446;29;20514;-85
2023/05/07 03:35:39;;;;;;;16.15;10.18;;;11.60;75.20;;;;;;4807663;29;20077;-84
2023/05/07 03:38:07;;;;;;;15.02;9.23;;;11.50;75.40;;;;;;4807650;29;20054;-84
2023/05/07 03:40:35;;;;;;;17.27;10.63;;;11.50;75.20;;;;;;4792788;29;20046;-85
2023/05/07 03:43:04;;;;;;;19.43;11.47;;;11.50;75.60;;;;;;4807804;29;20058;-84
2023/05/07 03:45:34;;;;;;;17.25;10.98;;;11.40;76.00;;;;;;4792725;29;20046;-84
2023/05/07 03:48:08;;;;;;;19.02;11.40;;;11.40;76.00;;;;;;4793417;29;20130;-85
2023/05/07 03:50:36;;;;;;;15.85;10.30;;;11.30;76.30;;;;;;4807329;29;20058;-84
2023/05/07 03:53:03;;;;;;;17.30;9.70;;;11.20;76.50;;;;;;4792305;29;20506;-84
2023/05/07 03:55:33;;;;;;;19.53;10.40;;;11.20;76.20;;;;;;4807720;29;20467;-84
2023/05/07 03:58:00;;;;;;;17.92;10.55;;;11.20;76.10;;;;;;4792342;29;20058;-84
2023/05/07 04:00:28;;;;;;;17.55;10.07;;;11.20;76.00;;;;;;4789292;29;20046;-84
2023/05/07 04:02:57;;;;;;;18.23;10.85;;;11.20;75.90;;;;;;4791443;29;20146;-84
2023/05/07 04:05:27;;;;;;;21.65;11.35;;;11.10;76.10;;;;;;4792838;29;20050;-84
2023/05/07 04:07:59;;;;;;;18.43;10.50;;;11.10;76.30;;;;;;4792629;29;20061;-84
2023/05/07 04:10:33;;;;;;;18.60;10.70;;;11.20;76.20;;;;;;4792914;29;20065;-85
2023/05/07 04:13:05;;;;;;;20.40;11.38;;;11.30;76.30;;;;;;4789238;29;20067;-85
2023/05/07 04:15:32;;;;;;;18.75;10.60;;;11.50;76.00;;;;;;4808432;29;20047;-84
2023/05/07 04:17:59;;;;;;;19.67;11.10;;;11.50;75.80;;;;;;4792029;29;20138;-85
2023/05/07 04:20:27;;;;;;;20.70;11.07;;;11.50;75.70;;;;;;4788820;29;20471;-85
2023/05/07 04:23:00;;;;;;;20.13;11.90;;;11.50;75.40;;;;;;4803972;29;20051;-85
2023/05/07 04:25:27;;;;;;;22.13;12.10;;;11.50;75.80;;;;;;4818640;29;20050;-85
2023/05/07 04:28:01;;;;;;;23.30;12.70;;;11.60;75.30;;;;;;4792639;29;20138;-85
2023/05/07 04:30:29;;;;;;;20.73;11.00;;;11.50;75.80;;;;;;4791745;29;20050;-85
2023/05/07 04:32:57;;;;;;;24.03;12.60;;;11.40;75.70;;;;;;4788773;29;20043;-85
2023/05/07 04:35:26;;;;;;;22.20;12.18;;;11.30;76.40;;;;;;4803558;29;20051;-84
2023/05/07 04:37:54;;;;;;;21.67;12.27;;;11.30;76.70;;;;;;4806608;29;20269;-85
2023/05/07 04:40:21;;;;;;;24.52;12.52;;;11.40;76.40;;;;;;4791442;29;20130;-84
2023/05/07 04:42:48;;;;;;;22.90;13.05;;;11.40;76.50;;;;;;4791346;29;20053;-84
2023/05/07 04:45:16;;;;;;;26.47;13.40;;;11.50;76.30;;;;;;4806327;29;20062;-84
2023/05/07 04:47:45;;;;;;;25.40;13.65;;;11.50;76.20;;;;;;4806572;29;20047;-85
2023/05/07 04:50:13;;;;;;;25.73;12.38;;;11.50;76.20;;;;;;4791290;29;20057;-85
2023/05/07 04:52:42;;;;;;;24.60;12.68;;;11.40;76.30;;;;;;4806356;29;20047;-84
2023/05/07 04:55:09;;;;;;;25.30;12.70;;;11.30;76.40;;;;;;4791158;29;20100;-84
2023/05/07 04:57:40;;;;;;;25.57;13.17;;;11.40;76.40;;;;;;4788898;29;20555;-85
2023/05/07 05:00:14;;;;;;;24.52;11.98;;;11.40;76.30;;;;;;4791430;29;20141;-85
2023/05/07 05:02:43;;;;;;;21.92;12.52;;;11.40;76.40;;;;;;4805784;29;20134;-85
2023/05/07 05:05:15;;;;;;;23.25;12.02;;;11.40;76.50;;;;;;4805643;29;20154;-84
2023/05/07 05:07:42;;;;;;;22.40;12.75;;;11.50;76.60;;;;;;4790980;29;20085;-85
2023/05/07 05:10:09;;;;;;;24.13;12.50;;;11.50;76.50;;;;;;4790858;29;20124;-84
2023/05/07 05:12:41;;;;;;;22.00;12.05;;;11.50;76.20;;;;;;4790802;29;20517;-84
2023/05/07 05:15:10;;;;;;;22.58;12.73;;;11.50;76.20;;;;;;4793907;29;20138;-84
2023/05/07 05:17:37;;;;;;;23.30;11.93;;;11.50;76.20;;;;;;4790243;29;20043;-84
2023/05/07 05:20:06;;;;;;;25.05;13.20;;;11.50;76.00;;;;;;4787443;29;20555;-84
2023/05/07 05:22:34;;;;;;;23.53;12.80;;;11.50;75.80;;;;;;4802667;29;20093;-85
2023/05/07 05:25:01;;;;;;;24.42;13.02;;;11.50;75.80;;;;;;4787310;29;20137;-83
2023/05/07 05:27:29;;;;;;;24.40;13.32;;;11.60;75.90;;;;;;4802147;29;20142;-83
2023/05/07 05:29:56;;;;;;;23.48;13.45;;;11.50;75.80;;;;;;4804145;29;20532;-83
2023/05/07 05:32:23;;;;;;;31.05;15.25;;;11.50;76.10;;;;;;4787205;29;20090;-83
2023/05/07 05:34:53;;;;;;;27.70;13.70;;;11.50;75.70;;;;;;4819857;29;20038;-83
2023/05/07 05:37:20;;;;;;;30.40;14.68;;;11.50;76.20;;;;;;4790254;29;20051;-83
2023/05/07 05:39:49;;;;;;;29.60;14.93;;;11.50;76.10;;;;;;4820284;29;20066;-83
2023/05/07 05:42:16;;;;;;;28.33;14.80;;;11.50;76.20;;;;;;4808057;29;20930;-83
2023/05/07 05:44:43;;;;;;;30.23;14.80;;;11.50;76.40;;;;;;4804372;29;20066;-84
2023/05/07 05:48:09;;;;;;;28.93;16.30;;;11.50;76.70;;;;;;4789794;29;20047;-84
2023/05/07 05:50:37;;;;;;;27.75;14.88;;;11.50;76.60;;;;;;4820317;29;20054;-84
2023/05/07 05:53:05;;;;;;;35.92;16.10;;;11.50;77.30;;;;;;4820214;29;20043;-84
2023/05/07 05:55:33;;;;;;;31.10;16.73;;;11.50;77.00;;;;;;4790142;29;20057;-84
2023/05/07 05:58:01;;;;;;;29.83;15.88;;;11.50;77.30;;;;;;4790076;29;20505;-84
2023/05/07 06:00:30;;;;;;;31.73;16.37;;;11.50;77.30;;;;;;4805077;29;20134;-84
2023/05/07 06:03:04;;;;;;;32.38;16.40;;;11.50;77.20;;;;;;4790591;29;20107;-84
2023/05/07 06:05:54;;;;;;;32.53;16.35;;;11.50;77.20;;;;;;4805003;29;20062;-86
2023/05/07 06:08:33;;;;;;;32.50;17.08;;;11.50;77.20;;;;;;4820842;29;20059;-85
2023/05/07 06:19:02;;;;;;;35.45;17.60;;;11.50;77.60;;;;;;4732842;30;20056;-84
2023/05/07 06:21:30;;;;;;;30.95;16.10;;;11.50;77.50;;;;;;4731629;30;20131;-83
2023/05/07 06:23:57;;;;;;;32.38;17.55;;;11.40;77.90;;;;;;4735307;30;20113;-84
2023/05/07 06:26:25;;;;;;;33.58;17.95;;;11.40;78.60;;;;;;4767976;30;20047;-86
2023/05/07 06:28:52;;;;;;;34.93;16.77;;;11.40;78.70;;;;;;4775590;30;20131;-86
2023/05/07 06:31:22;;;;;;;33.60;18.17;;;11.40;79.00;;;;;;4774586;30;20051;-85
2023/05/07 06:34:02;;;;;;;36.30;18.55;;;11.30;78.90;;;;;;4773937;30;20121;-84
2023/05/07 06:36:37;;;;;;;33.13;17.58;;;11.30;79.10;;;;;;4786629;30;20115;-85
2023/05/07 06:39:19;;;;;;;35.92;17.73;;;11.30;78.80;;;;;;4788308;30;20115;-84
2023/05/07 06:41:46;;;;;;;32.87;17.57;;;11.30;78.70;;;;;;4787493;29;20075;-84
2023/05/07 06:44:23;;;;;;;35.55;17.92;;;11.30;78.90;;;;;;4771259;30;20089;-85
2023/05/07 06:47:10;;;;;;;36.88;18.73;;;11.20;78.80;;;;;;4773660;30;20146;-85
2023/05/07 06:49:41;;;;;;;33.38;17.95;;;11.30;78.50;;;;;;4788390;30;20059;-85
2023/05/07 06:52:08;;;;;;;33.03;17.90;;;11.30;78.40;;;;;;4772293;30;20079;-85
2023/05/07 06:54:35;;;;;;;36.07;17.53;;;11.30;78.60;;;;;;4786580;30;20048;-85
2023/05/07 06:57:02;;;;;;;34.00;17.73;;;11.30;78.40;;;;;;4801833;29;20392;-86
2023/05/07 06:59:30;;;;;;;30.25;17.38;;;11.40;78.10;;;;;;4774967;30;20043;-85
2023/05/07 07:01:58;;;;;;;32.90;18.88;;;11.20;78.10;;;;;;4781716;29;20491;-84
2023/05/07 07:04:26;;;;;;;27.45;15.90;;;11.20;78.50;;;;;;4789522;29;20506;-85
2023/05/07 07:07:00;;;;;;;24.20;14.93;;;11.10;78.20;;;;;;4775178;30;20560;-84
2023/05/07 07:09:28;;;;;;;26.13;13.73;;;11.00;78.20;;;;;;4776629;30;20453;-84
2023/05/07 07:11:55;;;;;;;24.05;13.43;;;11.00;78.00;;;;;;4791748;29;20073;-84
2023/05/07 07:14:23;;;;;;;22.85;13.07;;;11.00;77.80;;;;;;4790870;29;20066;-82
2023/05/07 07:16:52;;;;;;;20.75;13.48;;;11.10;77.80;;;;;;4792644;29;20050;-81
2023/05/07 07:19:23;;;;;;;18.40;11.40;;;11.00;77.70;;;;;;4793266;29;20062;-87
2023/05/07 07:21:53;;;;;;;20.65;13.57;;;11.00;77.60;;;;;;4795624;29;20079;-83
2023/05/07 07:24:21;;;;;;;22.15;13.85;;;11.00;77.40;;;;;;4788782;29;20061;-84
2023/05/07 07:26:52;;;;;;;21.80;12.80;;;10.80;77.90;;;;;;4793434;29;20055;-85
2023/05/07 07:29:20;;;;;;;19.05;11.15;;;10.80;77.80;;;;;;4792671;29;20074;-85
2023/05/07 07:31:49;;;;;;;22.50;13.20;;;10.60;78.40;;;;;;4792861;29;20054;-85
2023/05/07 07:34:18;;;;;;;20.92;12.45;;;10.50;78.90;;;;;;4790349;29;20097;-85
2023/05/07 07:36:46;;;;;;;21.83;13.88;;;10.50;79.20;;;;;;4804230;29;20503;-85
2023/05/07 07:39:18;;;;;;;22.98;13.18;;;10.50;79.10;;;;;;4806646;29;20053;-85
2023/05/07 07:41:55;;;;;;;21.60;13.35;;;10.50;79.40;;;;;;4799965;29;20038;-85
2023/05/07 07:44:28;;;;;;;22.57;13.43;;;10.50;78.90;;;;;;4825440;29;20497;-85
2023/05/07 07:46:59;;;;;;;19.98;11.98;;;10.50;78.70;;;;;;4808500;29;20085;-85
2023/05/07 07:49:28;;;;;;;22.27;12.60;;;10.40;78.80;;;;;;4821940;29;20055;-84
2023/05/07 07:51:59;;;;;;;19.80;11.40;;;10.50;79.20;;;;;;4789670;29;20134;-84
2023/05/07 07:54:29;;;;;;;21.00;11.45;;;10.50;78.50;;;;;;4791941;29;20043;-84
2023/05/07 07:56:57;;;;;;;21.53;12.30;;;10.50;78.30;;;;;;4791816;29;20062;-85
2023/05/07 07:59:24;;;;;;;19.65;11.50;;;10.50;78.70;;;;;;4814665;29;20482;-85
2023/05/07 08:01:55;;;;;;;19.90;11.90;;;10.50;78.70;;;;;;4792032;29;20054;-84
2023/05/07 08:04:24;;;;;;;22.55;12.30;;;10.50;78.20;;;;;;4788311;29;20151;-84
2023/05/07 08:06:54;;;;;;;19.65;11.70;;;10.50;78.40;;;;;;4818110;29;20046;-85
2023/05/07 08:09:21;;;;;;;20.53;11.37;;;10.60;78.00;;;;;;4788965;29;20426;-85
2023/05/07 08:11:49;;;;;;;19.52;11.18;;;10.60;78.10;;;;;;4802462;29;20058;-84
2023/05/07 08:14:17;;;;;;;17.95;10.18;;;10.60;78.30;;;;;;4791257;29;20517;-84
2023/05/07 08:16:46;;;;;;;16.67;10.20;;;10.60;77.60;;;;;;4794998;29;20432;-85
2023/05/07 08:19:14;;;;;;;21.80;11.60;;;10.60;77.50;;;;;;4791550;29;20452;-84
2023/05/07 08:21:41;;;;;;;23.70;13.03;;;10.60;78.00;;;;;;4806856;29;20042;-85
2023/05/07 08:24:11;;;;;;;29.55;15.85;;;10.70;78.50;;;;;;4791724;29;20104;-86
2023/05/07 08:26:39;;;;;;;34.28;16.65;;;10.50;78.70;;;;;;4791775;29;20061;-85
2023/05/07 08:29:08;;;;;;;35.13;18.58;;;10.40;79.60;;;;;;4788930;29;20051;-84
2023/05/07 08:31:35;;;;;;;35.13;17.35;;;10.20;80.20;;;;;;4814720;29;20051;-84
2023/05/07 08:34:04;;;;;;;35.63;17.70;;;10.00;81.00;;;;;;4788448;29;20052;-84
2023/05/07 08:36:37;;;;;;;34.50;17.50;;;10.00;81.40;;;;;;4804251;29;20116;-85
2023/05/07 08:39:04;;;;;;;40.00;18.05;;;9.90;81.90;;;;;;4809980;29;20058;-84
2023/05/07 08:41:31;;;;;;;36.72;17.83;;;9.90;81.90;;;;;;4790613;29;20582;-85
2023/05/07 08:44:01;;;;;;;35.50;18.50;;;9.80;82.00;;;;;;4791347;29;20141;-85
2023/05/07 08:46:32;;;;;;;31.97;17.23;;;9.90;82.00;;;;;;4790401;29;20063;-84
2023/05/07 08:48:59;;;;;;;29.77;15.70;;;9.90;81.90;;;;;;4791184;29;20058;-84
2023/05/07 08:51:27;;;;;;;33.45;17.35;;;9.90;81.50;;;;;;4788511;29;20155;-85
2023/05/07 08:53:54;;;;;;;34.60;17.35;;;10.00;81.10;;;;;;4806023;29;20051;-84
2023/05/07 08:56:26;;;;;;;34.15;17.15;;;10.00;81.30;;;;;;4803089;29;20426;-85
2023/05/07 08:58:56;;;;;;;26.10;14.63;;;9.90;81.40;;;;;;4805936;29;20141;-84
2023/05/07 09:01:24;;;;;;;27.73;16.08;;;9.80;81.70;;;;;;4791317;29;20536;-84
2023/05/07 09:03:53;;;;;;;27.98;15.05;;;9.80;82.00;;;;;;4790912;29;20059;-84
2023/05/07 09:06:21;;;;;;;30.77;16.48;;;9.60;82.10;;;;;;4791506;29;20051;-84
2023/05/07 09:08:50;;;;;;;40.60;19.67;;;9.50;82.70;;;;;;4790585;29;20051;-84
2023/05/07 09:11:24;;;;;;;37.03;19.93;;;9.40;82.80;;;;;;4814888;29;20094;-85
2023/05/07 09:13:55;;;;;;;28.02;16.20;;;9.30;83.20;;;;;;4797929;29;20111;-84
2023/05/07 09:16:24;;;;;;;27.17;14.23;;;9.40;83.00;;;;;;4795665;29;20039;-85
2023/05/07 09:18:54;;;;;;;21.48;12.77;;;9.40;82.80;;;;;;4792966;29;20104;-85
2023/05/07 09:21:22;;;;;;;23.40;13.40;;;9.40;82.40;;;;;;4781232;29;20049;-84
2023/05/07 09:23:54;;;;;;;23.50;14.07;;;9.50;81.80;;;;;;4794437;29;20108;-84
2023/05/07 09:26:25;;;;;;;23.90;13.80;;;9.50;82.10;;;;;;4794951;29;20051;-84
2023/05/07 09:28:53;;;;;;;22.17;12.70;;;9.50;81.80;;;;;;4795057;29;20568;-84
2023/05/07 09:31:23;;;;;;;22.85;12.98;;;9.50;81.20;;;;;;4774890;29;20112;-84
2023/05/07 09:33:52;;;;;;;19.27;12.15;;;9.50;81.40;;;;;;4790796;29;20100;-84
2023/05/07 09:36:20;;;;;;;21.97;12.37;;;9.60;81.00;;;;;;4796397;29;20046;-84
2023/05/07 09:38:49;;;;;;;21.10;13.02;;;9.70;81.10;;;;;;4790473;29;20044;-84
2023/05/07 09:41:19;;;;;;;20.00;13.15;;;9.60;80.70;;;;;;4794958;29;20422;-87
2023/05/07 09:44:05;;;;;;;19.98;12.80;;;9.60;80.90;;;;;;4812710;29;20115;-87
2023/05/07 09:46:41;;;;;;;19.60;12.07;;;9.50;80.90;;;;;;4793593;29;20059;-87
2023/05/07 09:49:23;;;;;;;23.83;13.60;;;9.40;81.00;;;;;;4787404;30;20048;-87
2023/05/07 09:51:57;;;;;;;20.63;12.85;;;9.30;81.30;;;;;;4802456;29;20054;-87
2023/05/07 09:54:27;;;;;;;22.15;13.40;;;9.30;81.30;;;;;;4809758;29;20138;-87
2023/05/07 09:56:57;;;;;;;20.35;12.73;;;9.30;81.30;;;;;;4795563;29;20410;-87
2023/05/07 09:59:27;;;;;;;23.15;14.02;;;9.30;81.00;;;;;;4803850;29;20126;-87
2023/05/07 10:01:58;;;;;;;22.00;12.90;;;9.20;81.20;;;;;;4779098;29;20465;-86
2023/05/07 10:04:28;;;;;;;19.02;11.98;;;9.20;81.00;;;;;;4787200;29;20437;-87
2023/05/07 10:06:56;;;;;;;18.92;11.82;;;9.20;81.40;;;;;;4798664;29;20398;-86
2023/05/07 10:09:26;;;;;;;18.45;11.25;;;9.30;80.80;;;;;;4794731;29;20482;-87
2023/05/07 10:11:54;;;;;;;17.85;11.55;;;9.30;80.60;;;;;;4821581;29;20532;-86
2023/05/07 10:14:22;;;;;;;18.40;10.80;;;9.40;80.30;;;;;;4793275;29;20054;-87
2023/05/07 10:16:50;;;;;;;18.70;10.73;;;9.40;80.70;;;;;;4823306;29;20043;-87
2023/05/07 10:19:18;;;;;;;19.55;11.95;;;9.50;80.00;;;;;;4793088;29;20417;-87
2023/05/07 10:22:02;;;;;;;20.42;12.27;;;9.50;80.20;;;;;;4807946;29;20494;-86
2023/05/07 10:24:37;;;;;;;22.30;13.48;;;9.50;79.80;;;;;;4808155;29;20057;-87
2023/05/07 10:27:14;;;;;;;19.83;12.40;;;9.40;80.10;;;;;;4807464;29;20078;-87
2023/05/07 10:30:05;;;;;;;19.77;12.25;;;9.30;80.10;;;;;;4806636;29;20121;-85
2023/05/07 10:32:48;;;;;;;18.48;12.13;;;9.30;79.80;;;;;;4808101;29;20058;-85
2023/05/07 10:35:30;;;;;;;19.85;12.13;;;9.30;79.90;;;;;;4823007;29;20137;-84
2023/05/07 10:37:58;;;;;;;19.35;12.60;;;9.30;80.30;;;;;;4797672;29;20501;-85
2023/05/07 10:40:30;;;;;;;22.33;12.70;;;9.20;80.10;;;;;;4793282;29;20429;-84
2023/05/07 10:43:07;;;;;;;18.83;11.00;;;9.20;80.60;;;;;;4822843;29;20053;-85
2023/05/07 10:46:12;;;;;;;22.48;12.82;;;9.30;80.20;;;;;;4819886;29;20050;-85
2023/05/07 10:49:00;;;;;;;19.13;11.60;;;9.30;80.30;;;;;;4799554;29;20050;-85
2023/05/07 10:51:35;;;;;;;21.30;11.90;;;9.30;80.30;;;;;;4823072;29;20050;-84
2023/05/07 10:54:10;;;;;;;18.43;10.43;;;9.20;80.00;;;;;;4795898;29;20057;-84
2023/05/07 10:56:43;;;;;;;20.08;11.80;;;9.10;80.30;;;;;;4822970;29;20391;-84
2023/05/07 10:59:31;;;;;;;21.05;12.52;;;9.00;80.50;;;;;;4822937;29;20521;-85
2023/05/07 11:02:07;;;;;;;17.55;10.50;;;9.00;80.90;;;;;;4808718;29;20140;-85
2023/05/07 11:04:41;;;;;;;25.23;14.50;;;9.10;80.00;;;;;;4807631;29;20544;-84
2023/05/07 11:07:30;;;;;;;24.90;14.03;;;9.10;80.30;;;;;;4795364;29;20057;-84
2023/05/07 11:10:04;;;;;;;20.40;11.85;;;9.10;80.40;;;;;;4822557;29;20085;-84
2023/05/07 11:12:41;;;;;;;21.98;12.85;;;9.00;80.10;;;;;;4795402;29;20578;-84
2023/05/07 11:15:35;;;;;;;24.48;13.35;;;9.00;80.20;;;;;;4795643;29;20058;-84
2023/05/07 11:18:05;;;;;;;24.98;13.05;;;9.10;80.20;;;;;;4792903;29;20053;-84
2023/05/07 11:20:46;;;;;;;20.20;11.30;;;9.20;80.30;;;;;;4811761;29;20042;-84
2023/05/07 11:23:35;;;;;;;23.30;11.85;;;9.30;79.50;;;;;;4793982;29;20054;-84
2023/05/07 11:26:19;;;;;;;21.25;12.70;;;9.40;78.80;;;;;;4811499;29;20046;-84
2023/05/07 11:28:48;;;;;;;18.58;10.93;;;9.50;77.90;;;;;;4792731;29;20443;-85
2023/05/07 11:31:22;;;;;;;18.00;11.40;;;9.50;77.50;;;;;;4823055;29;20393;-85
2023/05/07 11:33:50;;;;;;;21.20;12.60;;;9.50;77.30;;;;;;4795505;29;20046;-84
2023/05/07 11:36:20;;;;;;;25.17;14.20;;;9.40;77.80;;;;;;4810641;29;20085;-84
2023/05/07 11:38:50;;;;;;;22.58;13.35;;;9.40;78.30;;;;;;4796193;29;20046;-84
2023/05/07 11:41:19;;;;;;;24.75;14.02;;;9.50;78.10;;;;;;4810330;29;20148;-84
2023/05/07 11:43:57;;;;;;;22.42;12.52;;;9.50;77.90;;;;;;4795555;29;20133;-84
2023/05/07 11:46:25;;;;;;;21.10;12.27;;;9.60;77.70;;;;;;4795363;29;20054;-84
2023/05/07 11:48:52;;;;;;;23.70;13.25;;;9.60;77.40;;;;;;4795416;29;20569;-84
2023/05/07 11:51:24;;;;;;;22.50;13.38;;;9.50;77.60;;;;;;4806590;29;20054;-85
2023/05/07 11:53:51;;;;;;;24.33;12.25;;;9.50;77.40;;;;;;4792763;29;20050;-85
2023/05/07 11:56:18;;;;;;;18.80;9.65;;;9.50;77.70;;;;;;4808937;29;20050;-85
2023/05/07 11:58:47;;;;;;;21.50;11.83;;;9.40;77.60;;;;;;4799693;29;20137;-85
2023/05/07 12:01:16;;;;;;;19.40;10.85;;;9.30;78.70;;;;;;4806977;29;20498;-84
2023/05/07 12:03:45;;;;;;;17.98;11.27;;;9.40;78.30;;;;;;4806924;29;20057;-85
2023/05/07 12:06:15;;;;;;;19.73;10.52;;;9.40;77.70;;;;;;4804267;29;20115;-85
2023/05/07 12:08:44;;;;;;;17.40;10.45;;;9.40;78.20;;;;;;4794772;29;20054;-85
2023/05/07 12:11:18;;;;;;;15.13;8.67;;;9.40;78.20;;;;;;4806611;29;20066;-84
2023/05/07 12:13:45;;;;;;;18.45;9.70;;;9.40;78.00;;;;;;4805141;29;20050;-85
2023/05/07 12:16:12;;;;;;;16.52;10.90;;;9.50;77.50;;;;;;4795033;29;20059;-84
2023/05/07 12:18:40;;;;;;;14.90;10.00;;;9.40;77.70;;;;;;4836479;29;20074;-84
2023/05/07 12:21:08;;;;;;;15.63;9.40;;;9.40;78.20;;;;;;4786046;29;20095;-84
2023/05/07 12:23:36;;;;;;;18.03;9.93;;;9.40;77.70;;;;;;4809196;29;20537;-85
2023/05/07 12:26:04;;;;;;;15.95;9.35;;;9.50;78.00;;;;;;4794870;29;20558;-84
2023/05/07 12:28:38;;;;;;;16.70;9.65;;;9.50;78.10;;;;;;4792723;29;20460;-84
2023/05/07 12:31:06;;;;;;;14.27;8.93;;;9.50;77.50;;;;;;4816531;29;20129;-84
2023/05/07 12:33:34;;;;;;;16.33;10.13;;;9.50;77.30;;;;;;4794486;29;20050;-84
2023/05/07 12:36:09;;;;;;;14.67;8.63;;;9.50;77.30;;;;;;4799553;29;20046;-84
2023/05/07 12:38:38;;;;;;;16.67;9.30;;;9.50;77.40;;;;;;4821345;29;20103;-84
2023/05/07 12:41:07;;;;;;;16.92;10.20;;;9.50;77.90;;;;;;4792509;29;20055;-84
2023/05/07 12:43:34;;;;;;;15.57;9.27;;;9.50;77.70;;;;;;4791924;29;20078;-84
2023/05/07 12:46:05;;;;;;;20.98;12.43;;;9.30;78.20;;;;;;4805513;29;20054;-84
2023/05/07 12:48:33;;;;;;;16.83;10.63;;;9.30;78.30;;;;;;4801101;29;20050;-84
2023/05/07 12:51:01;;;;;;;20.08;11.95;;;9.30;78.70;;;;;;4794475;29;20090;-84
2023/05/07 12:53:30;;;;;;;21.15;12.93;;;9.30;78.30;;;;;;4824068;29;20057;-84
2023/05/07 12:55:59;;;;;;;18.70;10.40;;;9.30;78.40;;;;;;4809314;29;20525;-84